sensor_id;sensor_type;location;lat;lon;timestamp;pressure;altitude;pressure_sealevel;temperature;humidity
38289;BME280;24092;53.370;-6.588;2023-02-28T00:02:12;103058.81;;;-0.12;100.00
38289;BME280;24092;53.370;-6.588;2023-02-28T00:04:39;103063.72;;;1.29;100.00
38289;BME280;24092;53.370;-6.588;2023-02-28T00:07:06;103066.36;;;0.27;100.00
38289;BME280;24092;53.370;-6.588;2023-02-28T00:09:33;103066.29;;;1.54;100.00
38289;BME280;24092;53.370;-6.588;2023-02-28T00:12:00;103065.10;;;2.77;100.00
38289;BME280;24092;53.370;-6.588;2023-02-28T00:14:29;103065.60;;;2.34;100.00
38289;BME280;24092;53.370;-6.588;2023-02-28T00:16:56;103065.31;;;3.14;100.00
38289;BME280;24092;53.370;-6.588;2023-02-28T00:19:23;103069.78;;;1.94;100.00
38289;BME280;24092;53.370;-6.588;2023-02-28T00:21:51;103068.91;;;2.38;100.00
38289;BME280;24092;53.370;-6.588;2023-02-28T00:24:18;103069.76;;;3.48;100.00
38289;BME280;24092;53.370;-6.588;2023-02-28T00:26:45;103068.82;;;3.93;100.00
38289;BME280;24092;53.370;-6.588;2023-02-28T00:29:12;103070.88;;;2.81;100.00
38289;BME280;24092;53.370;-6.588;2023-02-28T00:31:39;103073.24;;;3.36;100.00
38289;BME280;24092;53.370;-6.588;2023-02-28T00:34:06;103076.94;;;4.24;100.00
38289;BME280;24092;53.370;-6.588;2023-02-28T00:36:33;103075.86;;;3.52;100.00
38289;BME280;24092;53.370;-6.588;2023-02-28T00:39:01;103077.82;;;3.36;100.00
38289;BME280;24092;53.370;-6.588;2023-02-28T00:41:28;103078.49;;;3.52;100.00
38289;BME280;24092;53.370;-6.588;2023-02-28T00:43:55;103079.13;;;3.20;100.00
38289;BME280;24092;53.370;-6.588;2023-02-28T00:46:22;103084.99;;;2.92;100.00
38289;BME280;24092;53.370;-6.588;2023-02-28T00:48:49;103082.47;;;2.11;100.00
38289;BME280;24092;53.370;-6.588;2023-02-28T00:51:16;103080.21;;;2.44;100.00
38289;BME280;24092;53.370;-6.588;2023-02-28T00:53:43;103078.72;;;2.93;100.00
38289;BME280;24092;53.370;-6.588;2023-02-28T00:56:10;103076.54;;;2.09;100.00
38289;BME280;24092;53.370;-6.588;2023-02-28T00:58:38;103078.69;;;1.10;100.00
38289;BME280;24092;53.370;-6.588;2023-02-28T01:01:05;103078.81;;;2.29;100.00
38289;BME280;24092;53.370;-6.588;2023-02-28T01:03:32;103074.76;;;2.06;100.00
38289;BME280;24092;53.370;-6.588;2023-02-28T01:06:00;103070.07;;;2.08;100.00
38289;BME280;24092;53.370;-6.588;2023-02-28T01:08:27;103071.10;;;2.84;100.00
38289;BME280;24092;53.370;-6.588;2023-02-28T01:10:54;103074.15;;;2.34;100.00
38289;BME280;24092;53.370;-6.588;2023-02-28T01:13:21;103077.48;;;2.05;100.00
38289;BME280;24092;53.370;-6.588;2023-02-28T01:15:51;103081.11;;;2.38;100.00
38289;BME280;24092;53.370;-6.588;2023-02-28T01:18:18;103079.87;;;2.35;100.00
38289;BME280;24092;53.370;-6.588;2023-02-28T01:20:45;103076.68;;;2.96;100.00
38289;BME280;24092;53.370;-6.588;2023-02-28T01:23:12;103074.95;;;2.28;100.00
38289;BME280;24092;53.370;-6.588;2023-02-28T01:25:39;103080.54;;;2.69;100.00
38289;BME280;24092;53.370;-6.588;2023-02-28T01:28:06;103079.33;;;4.03;100.00
38289;BME280;24092;53.370;-6.588;2023-02-28T01:30:34;103080.00;;;1.37;100.00
38289;BME280;24092;53.370;-6.588;2023-02-28T01:33:02;103076.97;;;2.18;100.00
38289;BME280;24092;53.370;-6.588;2023-02-28T01:35:32;103084.34;;;1.65;100.00
38289;BME280;24092;53.370;-6.588;2023-02-28T01:37:59;103083.13;;;3.06;100.00
38289;BME280;24092;53.370;-6.588;2023-02-28T01:40:26;103080.91;;;3.26;100.00
38289;BME280;24092;53.370;-6.588;2023-02-28T01:42:53;103084.06;;;1.15;100.00
38289;BME280;24092;53.370;-6.588;2023-02-28T01:45:24;103082.51;;;0.27;100.00
38289;BME280;24092;53.370;-6.588;2023-02-28T01:48:03;103083.98;;;0.42;100.00
38289;BME280;24092;53.370;-6.588;2023-02-28T01:50:36;103080.38;;;0.48;100.00
38289;BME280;24092;53.370;-6.588;2023-02-28T01:53:08;103082.51;;;-1.14;100.00
38289;BME280;24092;53.370;-6.588;2023-02-28T01:55:38;103083.50;;;0.40;100.00
38289;BME280;24092;53.370;-6.588;2023-02-28T01:58:07;103086.12;;;-0.05;100.00
38289;BME280;24092;53.370;-6.588;2023-02-28T02:00:35;103083.96;;;0.71;100.00
38289;BME280;24092;53.370;-6.588;2023-02-28T02:03:07;103082.41;;;1.87;100.00
38289;BME280;24092;53.370;-6.588;2023-02-28T02:05:37;103080.69;;;0.46;100.00
38289;BME280;24092;53.370;-6.588;2023-02-28T02:08:08;103082.31;;;2.02;100.00
38289;BME280;24092;53.370;-6.588;2023-02-28T02:10:40;103080.88;;;0.81;100.00
38289;BME280;24092;53.370;-6.588;2023-02-28T02:13:18;103076.25;;;1.70;100.00
38289;BME280;24092;53.370;-6.588;2023-02-28T02:15:56;103075.37;;;1.39;100.00
38289;BME280;24092;53.370;-6.588;2023-02-28T02:18:31;103073.02;;;0.54;100.00
38289;BME280;24092;53.370;-6.588;2023-02-28T02:23:31;103072.92;;;0.39;100.00
38289;BME280;24092;53.370;-6.588;2023-02-28T02:26:18;103072.48;;;-0.51;100.00
38289;BME280;24092;53.370;-6.588;2023-02-28T02:29:06;103068.54;;;0.06;100.00
38289;BME280;24092;53.370;-6.588;2023-02-28T02:31:58;103070.18;;;-1.01;100.00
38289;BME280;24092;53.370;-6.588;2023-02-28T02:34:40;103074.39;;;-1.18;100.00
38289;BME280;24092;53.370;-6.588;2023-02-28T02:37:15;103071.16;;;-1.28;100.00
38289;BME280;24092;53.370;-6.588;2023-02-28T02:39:50;103068.92;;;-0.89;100.00
38289;BME280;24092;53.370;-6.588;2023-02-28T02:42:25;103065.80;;;0.70;100.00
38289;BME280;24092;53.370;-6.588;2023-02-28T02:44:59;103065.38;;;1.27;100.00
38289;BME280;24092;53.370;-6.588;2023-02-28T02:47:30;103064.37;;;0.46;100.00
38289;BME280;24092;53.370;-6.588;2023-02-28T02:50:02;103071.36;;;0.40;100.00
38289;BME280;24092;53.370;-6.588;2023-02-28T02:52:36;103075.40;;;0.91;100.00
38289;BME280;24092;53.370;-6.588;2023-02-28T02:55:07;103076.33;;;1.03;100.00
38289;BME280;24092;53.370;-6.588;2023-02-28T02:57:38;103071.73;;;-0.85;100.00
38289;BME280;24092;53.370;-6.588;2023-02-28T03:00:09;103080.75;;;-0.54;100.00
38289;BME280;24092;53.370;-6.588;2023-02-28T03:02:37;103078.15;;;0.47;100.00
38289;BME280;24092;53.370;-6.588;2023-02-28T03:05:12;103080.32;;;1.99;100.00
38289;BME280;24092;53.370;-6.588;2023-02-28T03:07:41;103081.03;;;0.48;100.00
38289;BME280;24092;53.370;-6.588;2023-02-28T03:10:28;103079.70;;;-0.40;100.00
38289;BME280;24092;53.370;-6.588;2023-02-28T03:13:08;103082.61;;;-0.14;100.00
38289;BME280;24092;53.370;-6.588;2023-02-28T03:15:46;103085.22;;;0.45;100.00
38289;BME280;24092;53.370;-6.588;2023-02-28T03:18:27;103087.90;;;1.15;100.00
38289;BME280;24092;53.370;-6.588;2023-02-28T03:21:01;103088.60;;;0.98;100.00
38289;BME280;24092;53.370;-6.588;2023-02-28T03:23:38;103085.80;;;1.92;100.00
38289;BME280;24092;53.370;-6.588;2023-02-28T03:26:13;103088.96;;;0.92;100.00
38289;BME280;24092;53.370;-6.588;2023-02-28T03:28:52;103087.89;;;1.13;100.00
38289;BME280;24092;53.370;-6.588;2023-02-28T03:31:22;103091.92;;;0.72;100.00
38289;BME280;24092;53.370;-6.588;2023-02-28T03:33:58;103092.07;;;0.87;100.00
38289;BME280;24092;53.370;-6.588;2023-02-28T03:36:29;103092.47;;;1.01;100.00
38289;BME280;24092;53.370;-6.588;2023-02-28T03:38:59;103098.20;;;1.32;100.00
38289;BME280;24092;53.370;-6.588;2023-02-28T03:41:32;103098.84;;;1.86;100.00
38289;BME280;24092;53.370;-6.588;2023-02-28T03:44:07;103095.01;;;0.65;100.00
38289;BME280;24092;53.370;-6.588;2023-02-28T03:46:43;103093.37;;;2.02;100.00
38289;BME280;24092;53.370;-6.588;2023-02-28T03:49:15;103093.96;;;1.56;100.00
38289;BME280;24092;53.370;-6.588;2023-02-28T03:51:43;103091.01;;;1.45;100.00
38289;BME280;24092;53.370;-6.588;2023-02-28T03:54:15;103097.34;;;0.40;100.00
38289;BME280;24092;53.370;-6.588;2023-02-28T03:56:45;103098.38;;;-0.38;100.00
38289;BME280;24092;53.370;-6.588;2023-02-28T03:59:17;103103.12;;;1.85;100.00
38289;BME280;24092;53.370;-6.588;2023-02-28T04:01:47;103104.26;;;1.77;100.00
38289;BME280;24092;53.370;-6.588;2023-02-28T04:04:16;103105.18;;;0.72;100.00
38289;BME280;24092;53.370;-6.588;2023-02-28T04:06:44;103103.01;;;0.68;100.00
38289;BME280;24092;53.370;-6.588;2023-02-28T04:09:13;103105.52;;;-0.37;100.00
38289;BME280;24092;53.370;-6.588;2023-02-28T04:11:42;103105.40;;;0.87;100.00
38289;BME280;24092;53.370;-6.588;2023-02-28T04:14:11;103106.79;;;1.37;100.00
38289;BME280;24092;53.370;-6.588;2023-02-28T04:16:40;103104.32;;;0.50;100.00
38289;BME280;24092;53.370;-6.588;2023-02-28T04:19:09;103102.05;;;-0.43;100.00
38289;BME280;24092;53.370;-6.588;2023-02-28T04:21:39;103108.75;;;1.77;100.00
38289;BME280;24092;53.370;-6.588;2023-02-28T04:24:09;103108.22;;;1.48;100.00
38289;BME280;24092;53.370;-6.588;2023-02-28T04:26:36;103113.02;;;1.52;100.00
38289;BME280;24092;53.370;-6.588;2023-02-28T04:29:04;103112.53;;;1.43;100.00
38289;BME280;24092;53.370;-6.588;2023-02-28T04:31:32;103113.10;;;1.13;100.00
38289;BME280;24092;53.370;-6.588;2023-02-28T04:34:00;103113.21;;;0.82;100.00
38289;BME280;24092;53.370;-6.588;2023-02-28T04:36:28;103112.38;;;0.54;100.00
38289;BME280;24092;53.370;-6.588;2023-02-28T04:38:55;103114.41;;;1.88;100.00
38289;BME280;24092;53.370;-6.588;2023-02-28T04:41:23;103117.03;;;0.90;100.00
38289;BME280;24092;53.370;-6.588;2023-02-28T04:43:51;103118.17;;;-0.17;100.00
38289;BME280;24092;53.370;-6.588;2023-02-28T04:46:19;103120.89;;;-0.96;100.00
38289;BME280;24092;53.370;-6.588;2023-02-28T04:48:46;103118.20;;;-0.40;100.00
38289;BME280;24092;53.370;-6.588;2023-02-28T04:51:15;103118.71;;;0.76;100.00
38289;BME280;24092;53.370;-6.588;2023-02-28T04:53:43;103118.85;;;2.30;100.00
38289;BME280;24092;53.370;-6.588;2023-02-28T04:56:12;103119.17;;;1.61;100.00
38289;BME280;24092;53.370;-6.588;2023-02-28T04:58:40;103121.84;;;-0.07;100.00
38289;BME280;24092;53.370;-6.588;2023-02-28T05:01:18;103122.48;;;0.03;100.00
38289;BME280;24092;53.370;-6.588;2023-02-28T05:03:46;103118.38;;;0.03;100.00
38289;BME280;24092;53.370;-6.588;2023-02-28T05:06:13;103117.35;;;1.00;100.00
38289;BME280;24092;53.370;-6.588;2023-02-28T05:08:41;103114.96;;;-0.24;100.00
38289;BME280;24092;53.370;-6.588;2023-02-28T05:11:16;103114.18;;;-0.53;100.00
38289;BME280;24092;53.370;-6.588;2023-02-28T05:13:44;103115.02;;;-0.21;100.00
38289;BME280;24092;53.370;-6.588;2023-02-28T05:16:12;103113.31;;;0.06;100.00
38289;BME280;24092;53.370;-6.588;2023-02-28T05:18:39;103118.51;;;-0.86;100.00
38289;BME280;24092;53.370;-6.588;2023-02-28T05:21:06;103116.19;;;-0.84;100.00
38289;BME280;24092;53.370;-6.588;2023-02-28T05:23:44;103110.51;;;0.48;100.00
38289;BME280;24092;53.370;-6.588;2023-02-28T05:26:11;103116.30;;;0.11;100.00
38289;BME280;24092;53.370;-6.588;2023-02-28T05:28:38;103118.65;;;0.73;100.00
38289;BME280;24092;53.370;-6.588;2023-02-28T05:31:06;103123.29;;;0.37;100.00
38289;BME280;24092;53.370;-6.588;2023-02-28T05:33:33;103131.50;;;-0.95;100.00
38289;BME280;24092;53.370;-6.588;2023-02-28T05:36:00;103136.99;;;-0.64;100.00
38289;BME280;24092;53.370;-6.588;2023-02-28T05:38:27;103140.19;;;-0.45;100.00
38289;BME280;24092;53.370;-6.588;2023-02-28T05:40:54;103140.80;;;1.25;100.00
38289;BME280;24092;53.370;-6.588;2023-02-28T05:43:21;103145.52;;;-0.58;100.00
38289;BME280;24092;53.370;-6.588;2023-02-28T05:45:48;103149.05;;;1.02;100.00
38289;BME280;24092;53.370;-6.588;2023-02-28T05:48:16;103148.05;;;0.64;100.00
38289;BME280;24092;53.370;-6.588;2023-02-28T05:50:43;103147.63;;;0.07;100.00
38289;BME280;24092;53.370;-6.588;2023-02-28T05:53:10;103151.68;;;0.53;100.00
38289;BME280;24092;53.370;-6.588;2023-02-28T05:55:37;103151.51;;;0.53;100.00
38289;BME280;24092;53.370;-6.588;2023-02-28T05:58:04;103153.91;;;-1.18;100.00
38289;BME280;24092;53.370;-6.588;2023-02-28T06:00:31;103153.99;;;-0.45;100.00
38289;BME280;24092;53.370;-6.588;2023-02-28T06:02:58;103155.43;;;-0.60;100.00
38289;BME280;24092;53.370;-6.588;2023-02-28T06:05:26;103155.53;;;-0.35;100.00
38289;BME280;24092;53.370;-6.588;2023-02-28T06:07:53;103156.82;;;-0.19;100.00
38289;BME280;24092;53.370;-6.588;2023-02-28T06:10:20;103160.71;;;-0.52;100.00
38289;BME280;24092;53.370;-6.588;2023-02-28T06:12:47;103162.31;;;-0.73;100.00
38289;BME280;24092;53.370;-6.588;2023-02-28T06:15:15;103160.81;;;-0.49;100.00
38289;BME280;24092;53.370;-6.588;2023-02-28T06:17:43;103162.77;;;-0.52;100.00
38289;BME280;24092;53.370;-6.588;2023-02-28T06:20:11;103162.80;;;0.15;100.00
38289;BME280;24092;53.370;-6.588;2023-02-28T06:22:39;103166.39;;;-1.68;100.00
38289;BME280;24092;53.370;-6.588;2023-02-28T06:25:07;103171.97;;;-1.94;100.00
38289;BME280;24092;53.370;-6.588;2023-02-28T06:27:35;103172.19;;;-2.45;100.00
38289;BME280;24092;53.370;-6.588;2023-02-28T06:30:02;103167.97;;;-2.30;100.00
38289;BME280;24092;53.370;-6.588;2023-02-28T06:32:30;103170.63;;;-2.50;100.00
38289;BME280;24092;53.370;-6.588;2023-02-28T06:34:57;103172.49;;;-1.97;100.00
38289;BME280;24092;53.370;-6.588;2023-02-28T06:37:24;103172.43;;;-2.51;100.00
38289;BME280;24092;53.370;-6.588;2023-02-28T06:39:51;103176.93;;;-2.07;100.00
38289;BME280;24092;53.370;-6.588;2023-02-28T06:42:19;103180.43;;;-2.15;100.00
38289;BME280;24092;53.370;-6.588;2023-02-28T06:44:46;103182.34;;;-2.61;100.00
38289;BME280;24092;53.370;-6.588;2023-02-28T06:47:13;103185.42;;;-2.92;100.00
38289;BME280;24092;53.370;-6.588;2023-02-28T06:49:40;103185.23;;;-3.03;100.00
38289;BME280;24092;53.370;-6.588;2023-02-28T06:52:07;103187.98;;;-2.66;100.00
38289;BME280;24092;53.370;-6.588;2023-02-28T06:54:36;103196.04;;;-2.00;100.00
38289;BME280;24092;53.370;-6.588;2023-02-28T06:57:03;103198.43;;;-3.16;100.00
38289;BME280;24092;53.370;-6.588;2023-02-28T06:59:30;103198.12;;;-2.72;100.00
38289;BME280;24092;53.370;-6.588;2023-02-28T07:01:58;103206.72;;;-2.83;100.00
38289;BME280;24092;53.370;-6.588;2023-02-28T07:04:25;103204.20;;;-2.78;100.00
38289;BME280;24092;53.370;-6.588;2023-02-28T07:06:52;103210.17;;;-2.32;100.00
38289;BME280;24092;53.370;-6.588;2023-02-28T07:09:19;103203.73;;;-2.61;100.00
38289;BME280;24092;53.370;-6.588;2023-02-28T07:11:46;103209.36;;;-2.41;100.00
38289;BME280;24092;53.370;-6.588;2023-02-28T07:14:13;103213.48;;;-2.30;100.00
38289;BME280;24092;53.370;-6.588;2023-02-28T07:16:41;103215.29;;;-2.39;100.00
38289;BME280;24092;53.370;-6.588;2023-02-28T07:19:08;103219.04;;;-2.60;100.00
38289;BME280;24092;53.370;-6.588;2023-02-28T07:21:35;103222.93;;;-1.96;100.00
38289;BME280;24092;53.370;-6.588;2023-02-28T07:24:02;103226.60;;;-3.12;100.00
38289;BME280;24092;53.370;-6.588;2023-02-28T07:26:29;103232.54;;;-2.89;100.00
38289;BME280;24092;53.370;-6.588;2023-02-28T07:28:57;103231.79;;;-3.28;100.00
38289;BME280;24092;53.370;-6.588;2023-02-28T07:31:24;103237.05;;;-3.47;100.00
38289;BME280;24092;53.370;-6.588;2023-02-28T07:33:51;103233.20;;;-3.14;100.00
38289;BME280;24092;53.370;-6.588;2023-02-28T07:36:23;103236.47;;;-3.08;100.00
38289;BME280;24092;53.370;-6.588;2023-02-28T07:38:50;103232.57;;;-2.27;100.00
38289;BME280;24092;53.370;-6.588;2023-02-28T07:41:20;103239.53;;;-2.56;100.00
38289;BME280;24092;53.370;-6.588;2023-02-28T07:43:48;103250.63;;;-3.31;100.00
38289;BME280;24092;53.370;-6.588;2023-02-28T07:46:16;103247.45;;;-2.56;100.00
38289;BME280;24092;53.370;-6.588;2023-02-28T07:48:43;103247.12;;;-2.45;100.00
38289;BME280;24092;53.370;-6.588;2023-02-28T07:51:11;103242.40;;;-2.63;100.00
38289;BME280;24092;53.370;-6.588;2023-02-28T07:53:38;103245.18;;;-2.69;100.00
38289;BME280;24092;53.370;-6.588;2023-02-28T07:56:06;103258.89;;;-3.22;100.00
38289;BME280;24092;53.370;-6.588;2023-02-28T07:58:34;103261.14;;;-3.40;100.00
38289;BME280;24092;53.370;-6.588;2023-02-28T08:01:06;103259.15;;;-3.08;100.00
38289;BME280;24092;53.370;-6.588;2023-02-28T08:03:34;103259.14;;;-2.55;100.00
38289;BME280;24092;53.370;-6.588;2023-02-28T08:06:02;103266.21;;;-2.56;100.00
38289;BME280;24092;53.370;-6.588;2023-02-28T08:08:29;103262.43;;;-3.18;100.00
38289;BME280;24092;53.370;-6.588;2023-02-28T08:10:58;103264.61;;;-2.18;100.00
38289;BME280;24092;53.370;-6.588;2023-02-28T08:13:26;103266.02;;;-2.18;100.00
38289;BME280;24092;53.370;-6.588;2023-02-28T08:15:53;103265.66;;;-3.50;100.00
38289;BME280;24092;53.370;-6.588;2023-02-28T08:18:21;103266.68;;;-3.06;100.00
38289;BME280;24092;53.370;-6.588;2023-02-28T08:20:49;103267.03;;;-2.42;100.00
38289;BME280;24092;53.370;-6.588;2023-02-28T08:23:16;103268.67;;;-2.51;100.00
38289;BME280;24092;53.370;-6.588;2023-02-28T08:25:45;103271.87;;;-2.22;100.00
38289;BME280;24092;53.370;-6.588;2023-02-28T08:28:11;103270.92;;;-3.15;100.00
38289;BME280;24092;53.370;-6.588;2023-02-28T08:30:38;103270.75;;;-3.42;100.00
38289;BME280;24092;53.370;-6.588;2023-02-28T08:33:06;103273.27;;;-3.06;100.00
38289;BME280;24092;53.370;-6.588;2023-02-28T08:35:35;103269.38;;;-3.09;100.00
38289;BME280;24092;53.370;-6.588;2023-02-28T08:38:02;103267.96;;;-3.17;100.00
38289;BME280;24092;53.370;-6.588;2023-02-28T08:40:29;103264.14;;;-2.92;100.00
38289;BME280;24092;53.370;-6.588;2023-02-28T08:42:57;103266.40;;;-2.56;100.00
38289;BME280;24092;53.370;-6.588;2023-02-28T08:45:24;103269.68;;;-3.24;100.00
38289;BME280;24092;53.370;-6.588;2023-02-28T08:47:51;103268.80;;;-2.90;100.00
38289;BME280;24092;53.370;-6.588;2023-02-28T08:50:18;103268.72;;;-3.48;100.00
38289;BME280;24092;53.370;-6.588;2023-02-28T08:52:45;103267.68;;;-2.81;100.00
38289;BME280;24092;53.370;-6.588;2023-02-28T08:55:13;103266.79;;;-2.99;100.00
38289;BME280;24092;53.370;-6.588;2023-02-28T08:57:40;103265.63;;;-2.94;100.00
38289;BME280;24092;53.370;-6.588;2023-02-28T09:00:08;103262.53;;;-2.63;100.00
38289;BME280;24092;53.370;-6.588;2023-02-28T09:02:36;103270.34;;;-3.18;100.00
38289;BME280;24092;53.370;-6.588;2023-02-28T09:05:03;103267.83;;;-2.75;100.00
38289;BME280;24092;53.370;-6.588;2023-02-28T09:07:31;103268.90;;;-2.13;100.00
38289;BME280;24092;53.370;-6.588;2023-02-28T09:09:58;103267.16;;;-2.06;100.00
38289;BME280;24092;53.370;-6.588;2023-02-28T09:12:27;103268.50;;;-2.36;100.00
38289;BME280;24092;53.370;-6.588;2023-02-28T09:14:54;103271.75;;;-1.50;100.00
38289;BME280;24092;53.370;-6.588;2023-02-28T09:17:21;103273.90;;;-1.93;100.00
38289;BME280;24092;53.370;-6.588;2023-02-28T09:19:49;103273.56;;;-2.52;100.00
38289;BME280;24092;53.370;-6.588;2023-02-28T09:22:16;103276.79;;;-2.14;100.00
38289;BME280;24092;53.370;-6.588;2023-02-28T09:24:43;103281.25;;;-2.33;100.00
38289;BME280;24092;53.370;-6.588;2023-02-28T09:27:10;103282.18;;;-1.89;100.00
38289;BME280;24092;53.370;-6.588;2023-02-28T09:29:37;103284.44;;;-2.18;100.00
38289;BME280;24092;53.370;-6.588;2023-02-28T09:32:04;103284.87;;;-1.86;100.00
38289;BME280;24092;53.370;-6.588;2023-02-28T09:34:32;103286.11;;;-1.86;100.00
38289;BME280;24092;53.370;-6.588;2023-02-28T09:37:00;103293.70;;;-2.17;100.00
38289;BME280;24092;53.370;-6.588;2023-02-28T09:39:27;103290.89;;;-2.31;100.00
38289;BME280;24092;53.370;-6.588;2023-02-28T09:41:55;103287.20;;;-1.97;100.00
38289;BME280;24092;53.370;-6.588;2023-02-28T09:44:27;103293.27;;;-2.50;100.00
38289;BME280;24092;53.370;-6.588;2023-02-28T09:46:58;103291.94;;;-2.67;100.00
38289;BME280;24092;53.370;-6.588;2023-02-28T09:49:34;103288.73;;;-2.11;100.00
38289;BME280;24092;53.370;-6.588;2023-02-28T09:52:05;103288.17;;;-1.64;100.00
38289;BME280;24092;53.370;-6.588;2023-02-28T09:54:36;103289.91;;;-1.23;100.00
38289;BME280;24092;53.370;-6.588;2023-02-28T09:57:08;103285.44;;;-0.88;100.00
38289;BME280;24092;53.370;-6.588;2023-02-28T09:59:45;103289.34;;;-2.23;100.00
38289;BME280;24092;53.370;-6.588;2023-02-28T10:02:29;103286.21;;;-2.23;100.00
38289;BME280;24092;53.370;-6.588;2023-02-28T10:05:06;103281.13;;;-2.19;100.00
38289;BME280;24092;53.370;-6.588;2023-02-28T10:07:50;103277.92;;;-1.98;100.00
38289;BME280;24092;53.370;-6.588;2023-02-28T10:10:26;103281.13;;;-1.67;100.00
38289;BME280;24092;53.370;-6.588;2023-02-28T10:12:57;103281.12;;;-1.52;100.00
38289;BME280;24092;53.370;-6.588;2023-02-28T10:15:27;103286.27;;;-2.50;100.00
38289;BME280;24092;53.370;-6.588;2023-02-28T10:18:00;103291.49;;;-2.04;100.00
38289;BME280;24092;53.370;-6.588;2023-02-28T10:20:33;103290.37;;;-1.97;100.00
38289;BME280;24092;53.370;-6.588;2023-02-28T10:23:05;103295.60;;;-1.22;100.00
38289;BME280;24092;53.370;-6.588;2023-02-28T10:25:38;103294.34;;;-1.94;100.00
38289;BME280;24092;53.370;-6.588;2023-02-28T10:28:10;103298.71;;;-1.49;100.00
38289;BME280;24092;53.370;-6.588;2023-02-28T10:30:41;103299.07;;;-1.81;100.00
38289;BME280;24092;53.370;-6.588;2023-02-28T10:33:18;103292.73;;;-1.82;100.00
38289;BME280;24092;53.370;-6.588;2023-02-28T10:35:46;103291.63;;;-1.81;100.00
38289;BME280;24092;53.370;-6.588;2023-02-28T10:38:18;103291.48;;;-1.89;100.00
38289;BME280;24092;53.370;-6.588;2023-02-28T10:40:45;103294.26;;;-1.16;100.00
38289;BME280;24092;53.370;-6.588;2023-02-28T10:43:21;103298.38;;;-1.12;100.00
38289;BME280;24092;53.370;-6.588;2023-02-28T10:45:56;103293.41;;;-2.05;100.00
38289;BME280;24092;53.370;-6.588;2023-02-28T10:48:32;103298.51;;;-1.33;100.00
38289;BME280;24092;53.370;-6.588;2023-02-28T10:51:00;103293.51;;;-1.62;100.00
38289;BME280;24092;53.370;-6.588;2023-02-28T10:53:34;103293.70;;;-2.01;100.00
38289;BME280;24092;53.370;-6.588;2023-02-28T10:56:05;103292.54;;;-1.67;100.00
38289;BME280;24092;53.370;-6.588;2023-02-28T10:58:48;103292.12;;;-1.22;100.00
38289;BME280;24092;53.370;-6.588;2023-02-28T11:01:17;103290.11;;;-1.65;100.00
38289;BME280;24092;53.370;-6.588;2023-02-28T11:03:45;103291.08;;;-1.46;100.00
38289;BME280;24092;53.370;-6.588;2023-02-28T11:06:17;103292.56;;;-2.02;100.00
38289;BME280;24092;53.370;-6.588;2023-02-28T11:08:47;103295.94;;;-2.17;100.00
38289;BME280;24092;53.370;-6.588;2023-02-28T11:11:15;103293.52;;;-1.72;100.00
38289;BME280;24092;53.370;-6.588;2023-02-28T11:13:44;103292.48;;;-2.13;100.00
38289;BME280;24092;53.370;-6.588;2023-02-28T11:16:13;103295.97;;;-2.07;100.00
38289;BME280;24092;53.370;-6.588;2023-02-28T11:18:44;103293.76;;;-1.95;100.00
38289;BME280;24092;53.370;-6.588;2023-02-28T11:21:21;103293.95;;;-1.69;100.00
38289;BME280;24092;53.370;-6.588;2023-02-28T11:23:52;103284.25;;;-0.32;100.00
38289;BME280;24092;53.370;-6.588;2023-02-28T11:26:39;103289.51;;;-1.44;100.00
38289;BME280;24092;53.370;-6.588;2023-02-28T11:29:12;103284.64;;;-1.71;100.00
38289;BME280;24092;53.370;-6.588;2023-02-28T11:31:42;103284.25;;;-1.62;100.00
38289;BME280;24092;53.370;-6.588;2023-02-28T11:34:27;103284.31;;;-2.02;100.00
38289;BME280;24092;53.370;-6.588;2023-02-28T11:36:57;103282.73;;;-1.88;100.00
38289;BME280;24092;53.370;-6.588;2023-02-28T11:39:25;103280.25;;;-2.04;100.00
38289;BME280;24092;53.370;-6.588;2023-02-28T11:43:10;103282.55;;;-1.26;100.00
38289;BME280;24092;53.370;-6.588;2023-02-28T11:45:49;103281.14;;;-1.95;100.00
38289;BME280;24092;53.370;-6.588;2023-02-28T11:48:22;103280.93;;;-1.77;100.00
38289;BME280;24092;53.370;-6.588;2023-02-28T11:50:59;103284.74;;;-1.45;100.00
38289;BME280;24092;53.370;-6.588;2023-02-28T11:53:45;103278.60;;;-1.56;100.00
38289;BME280;24092;53.370;-6.588;2023-02-28T11:56:21;103276.69;;;-1.94;100.00
38289;BME280;24092;53.370;-6.588;2023-02-28T11:58:59;103279.86;;;-1.00;100.00
38289;BME280;24092;53.370;-6.588;2023-02-28T12:01:42;103282.93;;;-1.28;100.00
38289;BME280;24092;53.370;-6.588;2023-02-28T12:04:22;103283.20;;;-0.83;100.00
38289;BME280;24092;53.370;-6.588;2023-02-28T12:06:56;103285.25;;;-1.29;100.00
38289;BME280;24092;53.370;-6.588;2023-02-28T12:09:37;103284.16;;;-1.29;100.00
38289;BME280;24092;53.370;-6.588;2023-02-28T12:12:16;103286.76;;;-1.19;100.00
38289;BME280;24092;53.370;-6.588;2023-02-28T12:14:59;103284.03;;;-0.97;100.00
38289;BME280;24092;53.370;-6.588;2023-02-28T12:17:42;103286.34;;;-1.92;100.00
38289;BME280;24092;53.370;-6.588;2023-02-28T12:20:20;103281.11;;;-1.57;100.00
38289;BME280;24092;53.370;-6.588;2023-02-28T12:22:57;103280.20;;;-1.24;100.00
38289;BME280;24092;53.370;-6.588;2023-02-28T12:25:50;103270.56;;;-1.53;100.00
38289;BME280;24092;53.370;-6.588;2023-02-28T12:28:25;103268.30;;;-1.50;100.00
38289;BME280;24092;53.370;-6.588;2023-02-28T12:30:58;103269.73;;;-0.52;100.00
38289;BME280;24092;53.370;-6.588;2023-02-28T12:33:31;103268.13;;;-1.69;100.00
38289;BME280;24092;53.370;-6.588;2023-02-28T12:36:03;103263.28;;;-1.62;100.00
38289;BME280;24092;53.370;-6.588;2023-02-28T12:38:37;103260.00;;;-1.66;100.00
38289;BME280;24092;53.370;-6.588;2023-02-28T12:41:11;103262.55;;;-1.35;100.00
38289;BME280;24092;53.370;-6.588;2023-02-28T12:43:43;103256.93;;;-0.89;100.00
38289;BME280;24092;53.370;-6.588;2023-02-28T12:46:15;103258.24;;;-1.09;100.00
38289;BME280;24092;53.370;-6.588;2023-02-28T12:48:48;103253.19;;;-0.00;100.00
38289;BME280;24092;53.370;-6.588;2023-02-28T12:51:19;103253.94;;;-0.79;100.00
38289;BME280;24092;53.370;-6.588;2023-02-28T12:53:56;103261.22;;;-1.33;100.00